createdAt,value
2022-12-01T00:01:56.702Z,1.62
2022-12-01T00:07:49.946Z,1.72
2022-12-01T00:13:42.125Z,1.70
2022-12-01T00:19:34.575Z,1.74
2022-12-01T00:25:26.175Z,1.65
2022-12-01T00:31:18.657Z,1.68
2022-12-01T00:37:11.654Z,1.73
2022-12-01T00:43:04.535Z,1.66
2022-12-01T00:48:56.305Z,1.52
2022-12-01T00:54:48.745Z,1.43
2022-12-01T01:00:43.173Z,1.48
2022-12-01T01:06:35.655Z,1.47
2022-12-01T01:12:28.877Z,1.53
2022-12-01T01:18:21.485Z,1.53
2022-12-01T01:24:14.117Z,1.53
2022-12-01T01:30:08.734Z,1.40
2022-12-01T01:36:01.677Z,1.37
2022-12-01T01:41:53.834Z,1.22
2022-12-01T01:47:45.875Z,1.37
2022-12-01T01:53:39.076Z,1.48
2022-12-01T01:59:37.636Z,1.53
2022-12-01T02:05:33.365Z,1.57
2022-12-01T02:11:51.358Z,1.63
2022-12-01T02:18:08.053Z,1.74
2022-12-01T02:24:30.955Z,1.72
2022-12-01T02:30:30.137Z,1.74
2022-12-01T02:36:35.219Z,1.68
2022-12-01T02:42:50.178Z,1.74
2022-12-01T02:48:47.304Z,1.77
2022-12-01T02:54:40.585Z,1.72
2022-12-01T03:00:33.226Z,1.75
2022-12-01T03:06:31.404Z,1.83
2022-12-01T03:12:46.355Z,1.85
2022-12-01T03:18:59.913Z,1.79
2022-12-01T03:24:55.414Z,1.79
2022-12-01T03:30:51.168Z,1.80
2022-12-01T03:36:53.140Z,1.82
2022-12-01T03:42:53.138Z,1.78
2022-12-01T03:48:46.725Z,1.75
2022-12-01T03:55:01.594Z,1.85
2022-12-01T04:00:57.770Z,1.85
2022-12-01T04:06:51.246Z,1.92
2022-12-01T04:12:43.984Z,1.91
2022-12-01T04:18:36.295Z,1.92
2022-12-01T04:24:29.044Z,1.86
2022-12-01T04:30:22.035Z,1.94
2022-12-01T04:36:13.884Z,1.94
2022-12-01T04:42:06.113Z,1.98
2022-12-01T04:47:57.971Z,1.96
2022-12-01T04:53:51.243Z,2.03
2022-12-01T04:59:43.154Z,2.07
2022-12-01T05:05:35.324Z,2.03
2022-12-01T05:11:30.201Z,2.10
2022-12-01T05:17:22.287Z,2.10
2022-12-01T05:23:16.950Z,2.05
2022-12-01T05:29:10.125Z,2.09
2022-12-01T05:35:02.185Z,2.19
2022-12-01T05:40:56.203Z,2.20
2022-12-01T05:46:48.224Z,2.24
2022-12-01T05:52:40.414Z,2.31
2022-12-01T05:58:32.304Z,2.36
2022-12-01T06:04:24.946Z,2.42
2022-12-01T06:10:17.485Z,2.35
2022-12-01T06:16:10.386Z,2.35
2022-12-01T06:22:02.615Z,2.36
2022-12-01T06:27:58.835Z,2.46
2022-12-01T06:33:51.169Z,2.63
2022-12-01T06:39:44.564Z,2.77
2022-12-01T06:45:36.474Z,2.83
2022-12-01T06:51:30.715Z,2.81
2022-12-01T06:57:24.456Z,2.81
2022-12-01T07:03:17.485Z,2.89
2022-12-01T07:09:09.575Z,2.87
2022-12-01T07:15:02.259Z,2.93
2022-12-01T07:20:54.524Z,3.08
2022-12-01T07:26:46.293Z,3.08
2022-12-01T07:32:40.535Z,3.15
2022-12-01T07:38:34.114Z,3.24
2022-12-01T07:44:26.611Z,3.47
2022-12-01T07:50:18.735Z,3.68
2022-12-01T07:56:11.955Z,3.77
2022-12-01T08:02:04.831Z,4.01
2022-12-01T08:07:57.510Z,4.15
2022-12-01T08:13:50.848Z,4.19
2022-12-01T08:19:43.636Z,4.39
2022-12-01T08:25:35.456Z,4.51
2022-12-01T08:31:30.353Z,4.57
2022-12-01T08:37:22.810Z,4.47
2022-12-01T08:43:41.507Z,4.39
2022-12-01T08:49:27.525Z,4.27
2022-12-01T08:55:20.799Z,4.38
2022-12-01T09:01:15.742Z,4.24
2022-12-01T09:07:10.526Z,4.30
2022-12-01T09:13:02.525Z,4.21
2022-12-01T09:18:55.765Z,4.23
2022-12-01T09:24:47.807Z,4.34
2022-12-01T09:30:40.484Z,4.38
2022-12-01T09:36:34.272Z,4.42
2022-12-01T09:42:32.284Z,4.49
2022-12-01T09:48:35.012Z,4.62
2022-12-01T09:54:29.766Z,4.68
2022-12-01T10:00:25.129Z,4.60
2022-12-01T10:06:35.739Z,4.77
2022-12-01T10:12:32.657Z,4.60
2022-12-01T10:18:37.595Z,4.67
2022-12-01T10:24:35.386Z,4.71
2022-12-01T10:30:28.315Z,4.82
2022-12-01T10:36:22.324Z,4.94
2022-12-01T10:42:35.018Z,4.85
2022-12-01T10:48:27.155Z,4.88
2022-12-01T10:54:20.112Z,4.98
2022-12-01T11:00:51.344Z,5.05
2022-12-01T11:06:36.539Z,5.01
2022-12-01T11:12:29.983Z,5.09
2022-12-01T11:18:32.708Z,5.06
2022-12-01T11:24:45.053Z,4.97
2022-12-01T11:30:37.142Z,4.91
2022-12-01T11:36:44.313Z,5.03
2022-12-01T11:42:37.334Z,4.90
2022-12-01T11:48:32.173Z,4.92
2022-12-01T11:54:26.370Z,4.94
2022-12-01T12:00:24.645Z,4.93
2022-12-01T12:06:39.954Z,4.83
2022-12-01T12:13:07.715Z,4.78
2022-12-01T12:19:20.465Z,4.61
2022-12-01T12:25:43.324Z,4.69
2022-12-01T12:31:59.913Z,4.66
2022-12-01T12:38:08.908Z,4.74
2022-12-01T12:44:12.015Z,4.65
2022-12-01T12:50:27.794Z,4.39
2022-12-01T12:56:25.791Z,4.47
2022-12-01T13:02:32.276Z,4.34
2022-12-01T13:08:29.891Z,4.36
2022-12-01T13:14:31.086Z,4.29
2022-12-01T13:20:28.039Z,4.31
2022-12-01T13:26:22.194Z,4.08
2022-12-01T13:32:32.144Z,4.06
2022-12-01T13:38:38.124Z,4.13
2022-12-01T13:44:36.554Z,4.07
2022-12-01T13:50:44.168Z,4.01
2022-12-01T13:57:01.994Z,3.98
2022-12-01T14:03:20.613Z,3.98
2022-12-01T14:09:29.054Z,3.97
2022-12-01T14:15:29.984Z,3.88
2022-12-01T14:21:44.177Z,3.89
2022-12-01T14:27:44.075Z,3.84
2022-12-01T14:34:19.076Z,3.87
2022-12-01T14:40:19.294Z,3.97
2022-12-01T14:46:14.703Z,3.94
2022-12-01T14:52:17.334Z,3.94
2022-12-01T14:58:22.620Z,3.95
2022-12-01T15:04:15.756Z,3.90
2022-12-01T15:10:34.915Z,3.91
2022-12-01T15:16:32.884Z,3.89
2022-12-01T15:22:31.076Z,3.96
2022-12-01T15:28:52.436Z,3.88
2022-12-01T15:34:48.288Z,3.84
2022-12-01T15:41:20.721Z,3.84
2022-12-01T15:46:55.897Z,3.96
2022-12-01T15:52:48.905Z,4.00
2022-12-01T15:58:46.220Z,3.96
2022-12-01T16:04:42.005Z,3.88
2022-12-01T16:10:37.394Z,3.95
2022-12-01T16:17:02.655Z,4.01
2022-12-01T16:23:01.326Z,4.09
2022-12-01T16:28:58.733Z,4.07
2022-12-01T16:34:54.145Z,4.02
2022-12-01T16:40:53.952Z,3.95
2022-12-01T16:46:45.710Z,4.04
2022-12-01T16:52:46.455Z,4.13
2022-12-01T16:58:39.337Z,4.17
2022-12-01T17:04:31.855Z,4.16
2022-12-01T17:10:24.475Z,4.06
2022-12-01T17:16:18.928Z,3.98
2022-12-01T17:22:12.851Z,4.01
2022-12-01T17:28:05.870Z,4.01
2022-12-01T17:33:58.144Z,4.02
2022-12-01T17:39:51.104Z,3.95
2022-12-01T17:45:43.605Z,3.93
2022-12-01T17:51:37.155Z,3.97
2022-12-01T17:57:28.914Z,3.87
2022-12-01T18:03:22.717Z,3.86
2022-12-01T18:09:15.152Z,3.97
2022-12-01T18:15:07.876Z,4.04
2022-12-01T18:21:00.046Z,4.02
2022-12-01T18:26:55.202Z,3.99
2022-12-01T18:32:47.214Z,3.92
2022-12-01T18:38:39.550Z,3.78
2022-12-01T18:44:32.649Z,3.84
2022-12-01T18:50:25.944Z,3.93
2022-12-01T18:56:19.848Z,3.78
2022-12-01T19:02:12.634Z,3.81
2022-12-01T19:08:05.333Z,3.81
2022-12-01T19:13:57.498Z,3.78
2022-12-01T19:19:50.179Z,3.68
2022-12-01T19:25:43.335Z,3.58
2022-12-01T19:31:36.324Z,3.52
2022-12-01T19:37:29.368Z,3.66
2022-12-01T19:43:21.486Z,3.66
2022-12-01T19:49:14.835Z,3.54
2022-12-01T19:55:08.354Z,3.58
2022-12-01T20:01:08.739Z,3.58
2022-12-01T20:07:01.827Z,3.65
2022-12-01T20:12:54.530Z,3.57
2022-12-01T20:18:48.974Z,3.47
2022-12-01T20:24:45.256Z,3.56
2022-12-01T20:30:40.762Z,3.42
2022-12-01T20:36:35.505Z,3.31
2022-12-01T20:42:30.713Z,3.31
2022-12-01T20:48:23.555Z,3.37
2022-12-01T20:54:33.225Z,3.26
2022-12-01T21:00:25.847Z,3.37
2022-12-01T21:06:19.377Z,3.15
2022-12-01T21:12:33.635Z,3.30
2022-12-01T21:18:29.398Z,3.17
2022-12-01T21:24:31.776Z,3.15
2022-12-01T21:30:26.640Z,3.25
2022-12-01T21:36:24.357Z,3.24
2022-12-01T21:42:37.122Z,3.16
2022-12-01T21:48:37.365Z,3.09
2022-12-01T21:54:30.238Z,3.17
2022-12-01T22:00:36.808Z,3.23
2022-12-01T22:06:30.840Z,3.30
2022-12-01T22:12:31.467Z,3.23
2022-12-01T22:18:30.190Z,3.17
2022-12-01T22:24:43.243Z,3.22
2022-12-01T22:30:35.867Z,3.23
2022-12-01T22:36:32.143Z,3.18
2022-12-01T22:42:32.717Z,3.17
2022-12-01T22:48:37.847Z,3.00
2022-12-01T22:54:34.455Z,3.06
2022-12-01T23:00:27.477Z,2.93
2022-12-01T23:06:38.284Z,3.02
2022-12-01T23:12:33.211Z,2.95
2022-12-01T23:18:29.545Z,3.05
2022-12-01T23:24:22.100Z,3.03
2022-12-01T23:30:17.267Z,3.12
2022-12-01T23:36:19.024Z,3.05
2022-12-01T23:42:13.059Z,3.13
2022-12-01T23:48:11.108Z,2.95
2022-12-01T23:54:17.194Z,2.99
